Stowe, Vermont
Current Conditions -  °F | °C
As of 7:54 AM on Sunday 21 Dec 2014 (Local Time) from KMVL Reporting Station
Haze Haze  
Wind Chill: 11°   Ceiling: 3100
Heat Index: 11°   Visibility: 6mi
Dew Point:   Wind: 0mph
Humidity: 88%   Direction: NA
Pressure: 30.34"   Gusts: NA
Location:  44.47°N, 72.68°W
Report Text: KMVL 211254Z AUTO 00000KT 6SM BR OVC031 M12/M13 A3034 RMK AO2 SLP291 T11171133 TSNO
Loading
Personal Weather Stations






























Interactive Weather Map New forecast layout! Learn more

10-Day Weather Forecast

Advertisements
Track Severe Weather on mobile